createdAt,value
2018-11-05T00:01:40.358Z,17.20
2018-11-05T00:04:08.789Z,18.97
2018-11-05T00:06:37.190Z,19.67
2018-11-05T00:09:08.465Z,16.50
2018-11-05T00:11:37.014Z,19.30
2018-11-05T00:14:05.632Z,17.93
2018-11-05T00:16:34.027Z,19.87
2018-11-05T00:19:02.431Z,15.80
2018-11-05T00:21:30.906Z,17.47
2018-11-05T00:23:59.298Z,17.03
2018-11-05T00:26:27.897Z,16.70
2018-11-05T00:28:56.311Z,18.13
2018-11-05T00:31:24.929Z,18.87
2018-11-05T00:33:53.358Z,17.93
2018-11-05T00:36:21.769Z,18.93
2018-11-05T00:38:50.210Z,18.37
2018-11-05T00:41:18.607Z,17.97
2018-11-05T00:43:46.973Z,18.17
2018-11-05T00:46:15.465Z,18.03
2018-11-05T00:48:43.982Z,21.50
2018-11-05T00:51:12.478Z,20.33
2018-11-05T00:53:40.923Z,19.23
2018-11-05T00:56:09.369Z,19.10
2018-11-05T00:58:37.835Z,18.13
2018-11-05T01:01:06.732Z,18.03
2018-11-05T01:03:35.258Z,18.87
2018-11-05T01:06:03.655Z,17.67
2018-11-05T01:08:32.246Z,22.40
2018-11-05T01:11:00.827Z,17.23
2018-11-05T01:13:29.223Z,17.73
2018-11-05T01:15:57.629Z,17.10
2018-11-05T01:18:26.148Z,17.83
2018-11-05T01:20:54.726Z,17.27
2018-11-05T01:23:23.242Z,19.43
2018-11-05T01:25:51.702Z,16.00
2018-11-05T01:28:20.110Z,17.10
2018-11-05T01:30:48.590Z,16.43
2018-11-05T01:33:17.058Z,18.17
2018-11-05T01:35:45.451Z,17.63
2018-11-05T01:38:13.842Z,17.10
2018-11-05T01:40:42.360Z,17.47
2018-11-05T01:43:10.829Z,16.33
2018-11-05T01:45:39.201Z,16.83
2018-11-05T01:48:07.745Z,16.20
2018-11-05T01:50:36.209Z,16.03
2018-11-05T01:53:04.892Z,15.80
2018-11-05T01:55:33.415Z,18.10
2018-11-05T01:58:01.854Z,18.27
2018-11-05T02:00:30.375Z,16.47
2018-11-05T02:02:58.761Z,20.67
2018-11-05T02:05:27.267Z,15.80
2018-11-05T02:07:55.783Z,17.20
2018-11-05T02:10:24.249Z,17.93
2018-11-05T02:12:52.594Z,17.10
2018-11-05T02:15:20.966Z,15.30
2018-11-05T02:17:49.363Z,17.83
2018-11-05T02:20:17.995Z,14.87
2018-11-05T02:22:46.561Z,16.70
2018-11-05T02:25:15.271Z,14.83
2018-11-05T02:27:43.836Z,17.67
2018-11-05T02:30:15.697Z,16.57
2018-11-05T02:32:44.474Z,16.13
2018-11-05T02:35:13.984Z,15.33
2018-11-05T02:37:43.399Z,16.63
2018-11-05T02:40:20.538Z,18.87
2018-11-05T02:42:49.434Z,16.13
2018-11-05T02:45:18.633Z,16.60
2018-11-05T02:47:47.149Z,15.60
2018-11-05T02:50:16.045Z,16.00
2018-11-05T02:52:45.418Z,16.20
2018-11-05T02:55:13.961Z,18.73
2018-11-05T02:57:42.375Z,16.57
2018-11-05T03:00:14.758Z,17.43
2018-11-05T03:02:43.440Z,19.37
2018-11-05T03:05:13.637Z,18.23
2018-11-05T03:07:42.962Z,18.97
2018-11-05T03:10:12.032Z,14.47
2018-11-05T03:12:41.251Z,17.60
2018-11-05T03:15:11.565Z,17.60
2018-11-05T03:17:40.166Z,17.07
2018-11-05T03:20:10.090Z,17.07
2018-11-05T03:22:38.790Z,19.03
2018-11-05T03:25:07.451Z,17.17
2018-11-05T03:27:35.978Z,16.03
2018-11-05T03:30:04.950Z,18.03
2018-11-05T03:32:33.423Z,17.80
2018-11-05T03:35:01.806Z,17.30
2018-11-05T03:37:30.460Z,16.50
2018-11-05T03:39:58.911Z,17.10
2018-11-05T03:42:27.274Z,18.40
2018-11-05T03:44:55.674Z,16.90
2018-11-05T03:47:24.063Z,16.77
2018-11-05T03:49:52.555Z,18.20
2018-11-05T03:52:21.081Z,16.50
2018-11-05T03:54:49.575Z,16.73
2018-11-05T03:57:18.027Z,17.97
2018-11-05T03:59:46.430Z,16.20
2018-11-05T04:02:14.789Z,17.13
2018-11-05T04:04:43.767Z,19.00
2018-11-05T04:07:12.147Z,17.00
2018-11-05T04:09:40.538Z,17.63
2018-11-05T04:12:09.211Z,17.93
2018-11-05T04:14:37.618Z,18.53
2018-11-05T04:17:06.546Z,20.80
2018-11-05T04:19:34.981Z,20.70
2018-11-05T04:22:03.496Z,17.00
2018-11-05T04:24:31.938Z,18.13
2018-11-05T04:27:00.325Z,16.50
2018-11-05T04:29:28.772Z,21.23
2018-11-05T04:31:57.243Z,18.00
2018-11-05T04:34:25.702Z,16.37
2018-11-05T04:36:54.095Z,18.00
2018-11-05T04:39:22.539Z,19.23
2018-11-05T04:41:50.969Z,18.00
2018-11-05T04:44:19.546Z,20.40
2018-11-05T04:46:48.011Z,17.47
2018-11-05T04:49:16.558Z,20.37
2018-11-05T04:51:45.191Z,16.47
2018-11-05T04:54:13.594Z,20.80
2018-11-05T04:56:42.009Z,17.80
2018-11-05T04:59:10.396Z,20.63
2018-11-05T05:01:38.804Z,23.23
2018-11-05T05:04:07.186Z,20.20
2018-11-05T05:06:35.594Z,20.93
2018-11-05T05:09:05.952Z,24.53
2018-11-05T05:11:34.321Z,24.23
2018-11-05T05:14:02.892Z,25.80
2018-11-05T05:16:31.300Z,25.17
2018-11-05T05:18:59.791Z,23.27
2018-11-05T05:21:28.214Z,21.87
2018-11-05T05:23:56.663Z,23.20
2018-11-05T05:26:25.219Z,23.10
2018-11-05T05:28:53.625Z,22.70
2018-11-05T05:31:22.022Z,24.20
2018-11-05T05:33:50.459Z,23.60
2018-11-05T05:36:18.870Z,23.37
2018-11-05T05:38:47.423Z,27.73
2018-11-05T05:41:15.988Z,21.47
2018-11-05T05:43:44.481Z,20.43
2018-11-05T05:46:12.926Z,18.13
2018-11-05T05:48:41.408Z,18.63
2018-11-05T05:51:10.290Z,18.63
2018-11-05T05:53:38.730Z,19.03
2018-11-05T05:56:07.154Z,15.67
2018-11-05T05:58:35.513Z,17.57
2018-11-05T06:01:04.151Z,14.57
2018-11-05T06:03:32.687Z,16.90
2018-11-05T06:06:01.259Z,16.30
2018-11-05T06:08:29.650Z,14.30
2018-11-05T06:10:58.222Z,13.43
2018-11-05T06:13:26.632Z,19.90
2018-11-05T06:15:55.315Z,16.37
2018-11-05T06:18:23.669Z,14.83
2018-11-05T06:20:52.161Z,15.73
2018-11-05T06:23:20.682Z,16.37
2018-11-05T06:25:49.213Z,20.63
2018-11-05T06:28:17.579Z,20.80
2018-11-05T06:30:46.022Z,16.60
2018-11-05T06:33:14.570Z,18.93
2018-11-05T06:35:43.086Z,17.13
2018-11-05T06:38:11.551Z,16.83
2018-11-05T06:40:39.987Z,19.40
2018-11-05T06:43:08.470Z,15.53
2018-11-05T06:45:36.845Z,17.13
2018-11-05T06:48:05.384Z,14.63
2018-11-05T06:50:33.937Z,17.17
2018-11-05T06:53:02.531Z,17.63
2018-11-05T06:55:30.791Z,19.60
2018-11-05T06:57:59.270Z,21.57
2018-11-05T07:00:27.694Z,24.97
2018-11-05T07:02:56.074Z,21.77
2018-11-05T07:05:24.573Z,26.93
2018-11-05T07:07:53.274Z,24.73
2018-11-05T07:10:21.718Z,19.20
2018-11-05T07:12:50.281Z,16.40
2018-11-05T07:15:19.389Z,15.17
2018-11-05T07:17:48.803Z,15.13
2018-11-05T07:20:18.435Z,14.70
2018-11-05T07:22:47.682Z,21.87
2018-11-05T07:25:16.371Z,20.40
2018-11-05T07:27:45.119Z,17.83
2018-11-05T07:30:17.500Z,16.80
2018-11-05T07:32:46.609Z,13.67
2018-11-05T07:35:15.827Z,13.33
2018-11-05T07:37:45.246Z,20.93
2018-11-05T07:40:15.048Z,13.23
2018-11-05T07:42:43.511Z,15.40
2018-11-05T07:45:15.630Z,17.57
2018-11-05T07:47:44.853Z,18.00
2018-11-05T07:50:14.525Z,16.43
2018-11-05T07:52:42.925Z,14.10
2018-11-05T07:55:12.859Z,16.67
2018-11-05T07:57:42.546Z,17.03
2018-11-05T08:00:20.319Z,17.50
2018-11-05T08:02:50.059Z,14.67
2018-11-05T08:05:19.527Z,14.93
2018-11-05T08:07:48.366Z,14.70
2018-11-05T08:10:16.752Z,17.60
2018-11-05T08:12:45.267Z,18.77
2018-11-05T08:15:16.915Z,16.53
2018-11-05T08:17:46.378Z,18.17
2018-11-05T08:20:14.861Z,17.83
2018-11-05T08:22:43.238Z,21.43
2018-11-05T08:25:12.419Z,23.20
2018-11-05T08:27:40.907Z,20.23
2018-11-05T08:30:11.907Z,18.10
2018-11-05T08:32:40.273Z,20.80
2018-11-05T08:35:09.764Z,18.70
2018-11-05T08:37:38.262Z,16.23
2018-11-05T08:40:10.715Z,16.33
2018-11-05T08:42:39.386Z,16.77
2018-11-05T08:45:07.960Z,16.90
2018-11-05T08:47:36.369Z,16.10
2018-11-05T08:50:05.044Z,15.37
2018-11-05T08:52:33.574Z,15.53
2018-11-05T08:55:02.058Z,15.67
2018-11-05T08:57:30.475Z,15.90
2018-11-05T08:59:58.895Z,12.83
2018-11-05T09:02:27.436Z,13.17
2018-11-05T09:04:55.902Z,13.60
2018-11-05T09:07:24.283Z,14.07
2018-11-05T09:09:52.857Z,13.17
2018-11-05T09:12:21.149Z,12.27
2018-11-05T09:14:49.536Z,13.57
2018-11-05T09:17:17.942Z,13.47
2018-11-05T09:19:46.319Z,12.40
2018-11-05T09:22:14.885Z,12.20
2018-11-05T09:24:43.451Z,11.67
2018-11-05T09:27:11.863Z,12.37
2018-11-05T09:29:40.303Z,12.07
2018-11-05T09:32:08.758Z,14.10
2018-11-05T09:34:37.318Z,13.90
2018-11-05T09:37:05.728Z,13.70
2018-11-05T09:39:34.235Z,12.83
2018-11-05T09:42:02.654Z,13.13
2018-11-05T09:44:31.105Z,12.13
2018-11-05T09:46:59.577Z,11.77
2018-11-05T09:49:27.952Z,12.93
2018-11-05T09:51:56.374Z,11.20
2018-11-05T09:54:24.790Z,12.30
2018-11-05T09:56:53.252Z,12.93
2018-11-05T09:59:21.691Z,12.70
2018-11-05T10:01:50.145Z,14.60
2018-11-05T10:04:18.656Z,14.00
2018-11-05T10:06:46.954Z,12.00
2018-11-05T10:09:15.336Z,15.10
2018-11-05T10:11:43.719Z,10.27
2018-11-05T10:14:12.143Z,11.83
2018-11-05T10:16:40.713Z,10.63
2018-11-05T10:19:09.109Z,10.20
2018-11-05T10:21:37.579Z,11.47
2018-11-05T10:24:06.212Z,9.70
2018-11-05T10:26:34.642Z,10.90
2018-11-05T10:29:03.106Z,11.23
2018-11-05T10:31:31.643Z,10.80
2018-11-05T10:34:00.025Z,11.60
2018-11-05T10:36:28.503Z,11.43
2018-11-05T10:38:56.890Z,10.90
2018-11-05T10:41:25.342Z,11.77
2018-11-05T10:43:54.004Z,16.50
2018-11-05T10:46:22.718Z,12.53
2018-11-05T10:48:51.057Z,11.93
2018-11-05T10:51:19.628Z,10.60
2018-11-05T10:53:47.961Z,10.93
2018-11-05T10:56:16.407Z,11.70
2018-11-05T10:58:44.922Z,14.93
2018-11-05T11:01:15.658Z,12.70
2018-11-05T11:03:49.481Z,13.40
2018-11-05T11:06:17.878Z,12.68
2018-11-05T11:08:46.319Z,11.70
2018-11-05T11:11:14.703Z,12.13
2018-11-05T11:13:43.344Z,11.83
2018-11-05T11:16:11.889Z,13.60
2018-11-05T11:18:40.427Z,11.60
2018-11-05T11:21:08.902Z,11.40
2018-11-05T11:23:37.414Z,14.53
2018-11-05T11:26:06.236Z,14.50
2018-11-05T11:28:34.715Z,13.98
2018-11-05T11:31:03.146Z,17.15
2018-11-05T11:33:31.707Z,14.65
2018-11-05T11:36:00.096Z,16.70
2018-11-05T11:38:28.675Z,14.93
2018-11-05T11:40:57.178Z,15.25
2018-11-05T11:43:25.715Z,14.43
2018-11-05T11:45:54.261Z,15.60
2018-11-05T11:48:22.791Z,16.15
2018-11-05T11:50:51.227Z,14.58
2018-11-05T11:53:19.835Z,14.40
2018-11-05T11:55:48.341Z,14.15
2018-11-05T11:58:16.797Z,13.20
2018-11-05T12:00:45.248Z,13.25
2018-11-05T12:03:13.730Z,12.43
2018-11-05T12:05:42.108Z,12.68
2018-11-05T12:08:10.489Z,11.80
2018-11-05T12:10:38.905Z,12.30
2018-11-05T12:13:07.429Z,11.95
2018-11-05T12:15:35.939Z,11.90
2018-11-05T12:18:04.398Z,11.78
2018-11-05T12:20:32.807Z,12.60
2018-11-05T12:23:01.190Z,11.00
2018-11-05T12:25:29.681Z,11.38
2018-11-05T12:27:58.111Z,11.18
2018-11-05T12:30:26.540Z,12.50
2018-11-05T12:32:55.111Z,12.18
2018-11-05T12:35:23.508Z,11.63
2018-11-05T12:37:52.907Z,11.10
2018-11-05T12:40:22.218Z,11.30
2018-11-05T12:42:51.277Z,11.83
2018-11-05T12:45:19.762Z,11.53
2018-11-05T12:47:48.240Z,11.43
2018-11-05T12:50:21.010Z,10.75
2018-11-05T12:52:50.437Z,11.05
2018-11-05T12:55:19.041Z,10.83
2018-11-05T12:57:47.816Z,10.05
2018-11-05T13:00:18.426Z,11.12
2018-11-05T13:02:52.734Z,10.10
2018-11-05T13:05:21.529Z,11.40
2018-11-05T13:07:50.018Z,11.45
2018-11-05T13:10:18.554Z,11.25
2018-11-05T13:12:47.032Z,10.88
2018-11-05T13:15:15.766Z,11.55
2018-11-05T13:17:44.178Z,11.15
2018-11-05T13:20:19.738Z,11.35
2018-11-05T13:22:48.570Z,11.93
2018-11-05T13:25:17.017Z,10.85
2018-11-05T13:27:46.887Z,11.55
2018-11-05T13:30:15.686Z,10.63
2018-11-05T13:32:44.457Z,11.00
2018-11-05T13:35:14.255Z,11.90
2018-11-05T13:37:43.177Z,10.90
2018-11-05T13:40:13.826Z,11.68
2018-11-05T13:42:42.474Z,10.82
2018-11-05T13:45:11.965Z,11.05
2018-11-05T13:47:41.267Z,11.60
2018-11-05T13:50:10.296Z,12.10
2018-11-05T13:52:38.825Z,11.18
2018-11-05T13:55:08.635Z,11.20
2018-11-05T13:57:37.231Z,11.90
2018-11-05T14:00:07.762Z,12.53
2018-11-05T14:02:36.183Z,11.35
2018-11-05T14:05:04.893Z,12.77
2018-11-05T14:07:34.014Z,12.55
2018-11-05T14:10:02.444Z,12.07
2018-11-05T14:12:30.946Z,12.35
2018-11-05T14:14:59.263Z,11.60
2018-11-05T14:17:27.767Z,10.65
2018-11-05T14:19:56.278Z,10.70
2018-11-05T14:22:24.914Z,10.45
2018-11-05T14:24:53.352Z,11.30
2018-11-05T14:27:21.941Z,12.82
2018-11-05T14:29:50.714Z,12.35
2018-11-05T14:32:18.891Z,12.50
2018-11-05T14:34:47.538Z,11.70
2018-11-05T14:37:16.116Z,11.63
2018-11-05T14:39:44.525Z,11.25
2018-11-05T14:42:12.946Z,11.50
2018-11-05T14:44:41.423Z,10.80
2018-11-05T14:47:10.006Z,11.40
2018-11-05T14:49:38.478Z,11.40
2018-11-05T14:52:06.929Z,11.03
2018-11-05T14:54:35.571Z,11.87
2018-11-05T14:57:03.990Z,11.38
2018-11-05T14:59:32.443Z,11.40
2018-11-05T15:02:06.339Z,10.33
2018-11-05T15:04:34.818Z,10.83
2018-11-05T15:07:03.537Z,10.75
2018-11-05T15:09:32.025Z,12.10
2018-11-05T15:12:00.608Z,10.70
2018-11-05T15:14:29.025Z,11.75
2018-11-05T15:16:57.606Z,11.90
2018-11-05T15:19:26.887Z,11.50
2018-11-05T15:21:54.979Z,10.87
2018-11-05T15:24:23.395Z,11.45
2018-11-05T15:26:52.070Z,13.00
2018-11-05T15:29:20.404Z,11.03
2018-11-05T15:31:48.969Z,11.60
2018-11-05T15:34:17.387Z,10.88
2018-11-05T15:36:45.874Z,11.73
2018-11-05T15:39:14.305Z,11.18
2018-11-05T15:41:42.707Z,12.50
2018-11-05T15:44:11.162Z,11.45
2018-11-05T15:46:39.905Z,12.90
2018-11-05T15:49:08.278Z,13.60
2018-11-05T15:51:37.048Z,14.20
2018-11-05T15:54:05.811Z,13.88
2018-11-05T15:56:34.312Z,14.58
2018-11-05T15:59:02.728Z,15.05
2018-11-05T16:01:31.331Z,14.90
2018-11-05T16:03:59.819Z,15.25
2018-11-05T16:06:28.296Z,14.33
2018-11-05T16:08:56.839Z,15.05
2018-11-05T16:11:25.388Z,16.30
2018-11-05T16:13:53.954Z,15.15
2018-11-05T16:16:22.436Z,16.37
2018-11-05T16:18:50.984Z,15.80
2018-11-05T16:21:19.415Z,15.72
2018-11-05T16:23:48.031Z,93.70
2018-11-05T16:26:16.480Z,54.88
2018-11-05T16:28:45.019Z,34.08
2018-11-05T16:31:13.536Z,22.65
2018-11-05T16:33:42.145Z,20.00
2018-11-05T16:36:10.840Z,18.50
2018-11-05T16:38:39.427Z,20.92
2018-11-05T16:41:08.000Z,17.85
2018-11-05T16:43:36.485Z,21.87
2018-11-05T16:46:05.950Z,24.23
2018-11-05T16:48:34.490Z,23.57
2018-11-05T16:51:02.980Z,21.65
2018-11-05T16:53:31.580Z,19.67
2018-11-05T16:56:00.111Z,22.70
2018-11-05T16:58:28.662Z,25.90
2018-11-05T17:00:57.279Z,26.07
2018-11-05T17:03:25.543Z,19.60
2018-11-05T17:05:54.178Z,25.82
2018-11-05T17:08:22.567Z,21.75
2018-11-05T17:10:51.086Z,21.73
2018-11-05T17:13:19.697Z,23.50
2018-11-05T17:15:48.074Z,27.62
2018-11-05T17:18:16.456Z,27.42
2018-11-05T17:20:44.941Z,22.62
2018-11-05T17:23:13.398Z,22.00
2018-11-05T17:25:42.090Z,21.75
2018-11-05T17:28:10.593Z,21.97
2018-11-05T17:30:39.030Z,21.35
2018-11-05T17:33:07.629Z,34.78
2018-11-05T17:35:36.010Z,37.67
2018-11-05T17:38:04.481Z,32.95
2018-11-05T17:40:33.216Z,30.40
2018-11-05T17:43:01.697Z,24.70
2018-11-05T17:45:30.200Z,44.60
2018-11-05T17:47:58.787Z,83.10
2018-11-05T17:50:27.272Z,39.33
2018-11-05T17:52:55.831Z,22.25
2018-11-05T17:55:24.284Z,24.15
2018-11-05T17:57:52.829Z,23.90
2018-11-05T18:00:22.670Z,24.15
2018-11-05T18:02:51.364Z,20.80
2018-11-05T18:05:20.124Z,28.15
2018-11-05T18:07:48.709Z,26.93
2018-11-05T18:10:17.585Z,26.52
2018-11-05T18:12:46.386Z,27.30
2018-11-05T18:15:14.811Z,26.17
2018-11-05T18:17:44.532Z,27.00
2018-11-05T18:20:13.992Z,26.93
2018-11-05T18:22:42.646Z,28.32
2018-11-05T18:25:12.788Z,29.00
2018-11-05T18:27:41.347Z,24.92
2018-11-05T18:30:10.505Z,24.43
2018-11-05T18:32:39.037Z,25.52
2018-11-05T18:35:09.259Z,25.95
2018-11-05T18:37:37.796Z,32.37
2018-11-05T18:40:10.122Z,28.07
2018-11-05T18:42:39.169Z,25.50
2018-11-05T18:45:08.393Z,24.75
2018-11-05T18:47:36.974Z,22.73
2018-11-05T18:50:07.900Z,21.42
2018-11-05T18:52:36.723Z,21.65
2018-11-05T18:55:06.916Z,24.70
2018-11-05T18:57:35.792Z,25.57
2018-11-05T19:00:05.662Z,25.62
2018-11-05T19:02:35.217Z,22.85
2018-11-05T19:05:04.134Z,24.20
2018-11-05T19:07:32.996Z,23.45
2018-11-05T19:10:01.670Z,22.98
2018-11-05T19:12:30.141Z,22.13
2018-11-05T19:14:58.801Z,23.55
2018-11-05T19:17:27.467Z,24.35
2018-11-05T19:19:56.269Z,24.35
2018-11-05T19:22:24.810Z,24.23
2018-11-05T19:24:53.329Z,24.37
2018-11-05T19:27:22.668Z,23.20
2018-11-05T19:29:51.211Z,22.25
2018-11-05T19:32:19.779Z,22.05
2018-11-05T19:34:51.195Z,21.30
2018-11-05T19:37:19.650Z,23.32
2018-11-05T19:39:48.116Z,27.75
2018-11-05T19:42:16.657Z,24.45
2018-11-05T19:44:45.069Z,23.80
2018-11-05T19:47:13.670Z,23.62
2018-11-05T19:49:42.092Z,26.27
2018-11-05T19:52:10.639Z,25.48
2018-11-05T19:54:39.233Z,24.55
2018-11-05T19:57:07.814Z,24.67
2018-11-05T19:59:36.330Z,23.62
2018-11-05T20:02:05.791Z,23.65
2018-11-05T20:04:34.334Z,23.60
2018-11-05T20:07:03.620Z,24.70
2018-11-05T20:09:32.130Z,25.80
2018-11-05T20:12:00.742Z,28.65
2018-11-05T20:14:29.238Z,27.53
2018-11-05T20:16:58.035Z,27.25
2018-11-05T20:19:26.701Z,25.75
2018-11-05T20:21:55.239Z,26.60
2018-11-05T20:24:23.796Z,28.92
2018-11-05T20:26:52.230Z,26.87
2018-11-05T20:29:20.756Z,36.58
2018-11-05T20:31:49.609Z,72.03
2018-11-05T20:34:18.221Z,70.85
2018-11-05T20:36:46.700Z,67.77
2018-11-05T20:39:15.301Z,28.02
2018-11-05T20:41:43.894Z,28.30
2018-11-05T20:44:12.375Z,27.32
2018-11-05T20:46:41.159Z,28.92
2018-11-05T20:49:09.516Z,30.15
2018-11-05T20:51:38.268Z,41.95
2018-11-05T20:54:06.955Z,52.55
2018-11-05T20:56:35.572Z,38.02
2018-11-05T20:59:04.166Z,35.05
2018-11-05T21:01:32.723Z,39.10
2018-11-05T21:04:01.197Z,43.15
2018-11-05T21:06:29.795Z,34.45
2018-11-05T21:08:58.383Z,35.58
2018-11-05T21:11:27.004Z,30.77
2018-11-05T21:13:55.461Z,27.73
2018-11-05T21:16:23.914Z,27.58
2018-11-05T21:18:52.422Z,29.12
2018-11-05T21:21:21.060Z,28.80
2018-11-05T21:23:49.664Z,28.65
2018-11-05T21:26:19.047Z,27.98
2018-11-05T21:28:47.498Z,27.73
2018-11-05T21:31:16.020Z,27.93
2018-11-05T21:33:44.469Z,27.62
2018-11-05T21:36:13.000Z,26.62
2018-11-05T21:38:41.438Z,26.33
2018-11-05T21:41:09.911Z,26.90
2018-11-05T21:43:38.591Z,26.50
2018-11-05T21:46:07.186Z,28.85
2018-11-05T21:48:35.685Z,25.37
2018-11-05T21:51:04.307Z,26.17
2018-11-05T21:53:32.939Z,26.57
2018-11-05T21:56:01.518Z,25.05
2018-11-05T21:58:29.950Z,27.07
2018-11-05T22:00:58.406Z,24.63
2018-11-05T22:03:26.957Z,27.58
2018-11-05T22:05:55.563Z,24.98
2018-11-05T22:08:24.036Z,26.75
2018-11-05T22:10:52.485Z,25.77
2018-11-05T22:13:20.993Z,26.00
2018-11-05T22:15:49.415Z,25.12
2018-11-05T22:18:18.449Z,24.00
2018-11-05T22:20:47.038Z,24.27
2018-11-05T22:23:15.678Z,24.55
2018-11-05T22:25:44.205Z,24.05
2018-11-05T22:28:12.655Z,25.45
2018-11-05T22:30:41.227Z,24.87
2018-11-05T22:33:09.615Z,25.95
